sensor_id;sensor_type;location;lat;lon;timestamp;P1;durP1;ratioP1;P2;durP2;ratioP2
9827;SDS011;4953;48.952;9.442;2022-10-03T00:00:23;29.77;;;19.40;;
9827;SDS011;4953;48.952;9.442;2022-10-03T00:03:07;26.77;;;17.80;;
9827;SDS011;4953;48.952;9.442;2022-10-03T00:05:50;29.03;;;17.97;;
9827;SDS011;4953;48.952;9.442;2022-10-03T00:08:26;26.70;;;16.50;;
9827;SDS011;4953;48.952;9.442;2022-10-03T00:11:09;28.63;;;19.23;;
9827;SDS011;4953;48.952;9.442;2022-10-03T00:13:48;30.77;;;20.00;;
9827;SDS011;4953;48.952;9.442;2022-10-03T00:16:25;30.13;;;18.43;;
9827;SDS011;4953;48.952;9.442;2022-10-03T00:19:05;26.47;;;16.97;;
9827;SDS011;4953;48.952;9.442;2022-10-03T00:21:42;30.50;;;19.10;;
9827;SDS011;4953;48.952;9.442;2022-10-03T00:24:21;33.60;;;18.80;;
9827;SDS011;4953;48.952;9.442;2022-10-03T00:26:59;28.20;;;19.17;;
9827;SDS011;4953;48.952;9.442;2022-10-03T00:29:35;33.73;;;20.87;;
9827;SDS011;4953;48.952;9.442;2022-10-03T00:32:16;23.60;;;17.60;;
9827;SDS011;4953;48.952;9.442;2022-10-03T00:34:55;28.87;;;19.00;;
9827;SDS011;4953;48.952;9.442;2022-10-03T00:37:32;28.80;;;18.40;;
9827;SDS011;4953;48.952;9.442;2022-10-03T00:40:07;33.07;;;20.37;;
9827;SDS011;4953;48.952;9.442;2022-10-03T00:49:04;32.60;;;21.07;;
9827;SDS011;4953;48.952;9.442;2022-10-03T00:52:05;37.50;;;20.57;;
9827;SDS011;4953;48.952;9.442;2022-10-03T00:54:52;36.10;;;21.83;;
9827;SDS011;4953;48.952;9.442;2022-10-03T00:57:35;33.97;;;20.57;;
9827;SDS011;4953;48.952;9.442;2022-10-03T01:00:15;32.57;;;20.33;;
9827;SDS011;4953;48.952;9.442;2022-10-03T01:02:59;35.37;;;19.40;;
9827;SDS011;4953;48.952;9.442;2022-10-03T01:05:39;34.83;;;21.27;;
9827;SDS011;4953;48.952;9.442;2022-10-03T01:11:05;36.23;;;22.20;;
9827;SDS011;4953;48.952;9.442;2022-10-03T01:13:44;37.93;;;22.27;;
9827;SDS011;4953;48.952;9.442;2022-10-03T01:16:20;32.93;;;21.37;;
9827;SDS011;4953;48.952;9.442;2022-10-03T01:18:59;36.77;;;20.20;;
9827;SDS011;4953;48.952;9.442;2022-10-03T01:21:35;48.00;;;23.00;;
9827;SDS011;4953;48.952;9.442;2022-10-03T01:24:25;35.63;;;20.67;;
9827;SDS011;4953;48.952;9.442;2022-10-03T01:27:12;33.70;;;20.80;;
9827;SDS011;4953;48.952;9.442;2022-10-03T01:29:46;34.73;;;20.57;;
9827;SDS011;4953;48.952;9.442;2022-10-03T01:32:39;39.07;;;21.00;;
9827;SDS011;4953;48.952;9.442;2022-10-03T01:35:19;32.13;;;21.17;;
9827;SDS011;4953;48.952;9.442;2022-10-03T01:37:52;38.03;;;21.50;;
9827;SDS011;4953;48.952;9.442;2022-10-03T01:40:27;35.90;;;20.90;;
9827;SDS011;4953;48.952;9.442;2022-10-03T01:43:04;32.80;;;21.63;;
9827;SDS011;4953;48.952;9.442;2022-10-03T01:45:43;39.20;;;21.67;;
9827;SDS011;4953;48.952;9.442;2022-10-03T01:48:20;34.53;;;21.00;;
9827;SDS011;4953;48.952;9.442;2022-10-03T01:50:54;40.17;;;21.00;;
9827;SDS011;4953;48.952;9.442;2022-10-03T01:53:28;36.70;;;21.50;;
9827;SDS011;4953;48.952;9.442;2022-10-03T01:56:05;35.23;;;21.70;;
9827;SDS011;4953;48.952;9.442;2022-10-03T01:58:40;37.10;;;21.57;;
9827;SDS011;4953;48.952;9.442;2022-10-03T02:01:18;43.70;;;23.60;;
9827;SDS011;4953;48.952;9.442;2022-10-03T02:03:52;39.27;;;22.00;;
9827;SDS011;4953;48.952;9.442;2022-10-03T02:06:31;39.57;;;23.20;;
9827;SDS011;4953;48.952;9.442;2022-10-03T02:09:08;42.47;;;23.27;;
9827;SDS011;4953;48.952;9.442;2022-10-03T02:11:44;37.93;;;22.57;;
9827;SDS011;4953;48.952;9.442;2022-10-03T02:14:39;38.60;;;20.60;;
9827;SDS011;4953;48.952;9.442;2022-10-03T02:17:21;37.10;;;20.70;;
9827;SDS011;4953;48.952;9.442;2022-10-03T02:19:56;37.00;;;20.70;;
9827;SDS011;4953;48.952;9.442;2022-10-03T02:22:28;41.37;;;21.63;;
9827;SDS011;4953;48.952;9.442;2022-10-03T02:25:01;37.10;;;20.97;;
9827;SDS011;4953;48.952;9.442;2022-10-03T02:27:44;40.60;;;23.20;;
9827;SDS011;4953;48.952;9.442;2022-10-03T02:30:29;36.03;;;20.57;;
9827;SDS011;4953;48.952;9.442;2022-10-03T02:36:23;47.93;;;22.50;;
9827;SDS011;4953;48.952;9.442;2022-10-03T02:39:25;40.97;;;21.93;;
9827;SDS011;4953;48.952;9.442;2022-10-03T02:45:43;45.03;;;22.60;;
9827;SDS011;4953;48.952;9.442;2022-10-03T02:48:58;44.40;;;24.33;;
9827;SDS011;4953;48.952;9.442;2022-10-03T02:52:02;43.10;;;22.67;;
9827;SDS011;4953;48.952;9.442;2022-10-03T02:54:58;39.20;;;21.97;;
9827;SDS011;4953;48.952;9.442;2022-10-03T02:58:06;47.00;;;24.23;;
9827;SDS011;4953;48.952;9.442;2022-10-03T03:01:21;45.50;;;23.10;;
9827;SDS011;4953;48.952;9.442;2022-10-03T03:07:19;47.17;;;24.53;;
9827;SDS011;4953;48.952;9.442;2022-10-03T03:13:10;51.10;;;25.80;;
9827;SDS011;4953;48.952;9.442;2022-10-03T03:16:18;41.80;;;22.90;;
9827;SDS011;4953;48.952;9.442;2022-10-03T03:19:14;41.30;;;22.90;;
9827;SDS011;4953;48.952;9.442;2022-10-03T03:21:52;43.77;;;24.77;;
9827;SDS011;4953;48.952;9.442;2022-10-03T03:24:36;46.23;;;23.80;;
9827;SDS011;4953;48.952;9.442;2022-10-03T03:27:22;45.03;;;23.77;;
9827;SDS011;4953;48.952;9.442;2022-10-03T03:30:06;44.10;;;24.10;;
9827;SDS011;4953;48.952;9.442;2022-10-03T03:32:41;49.57;;;25.10;;
9827;SDS011;4953;48.952;9.442;2022-10-03T03:35:24;41.57;;;23.30;;
9827;SDS011;4953;48.952;9.442;2022-10-03T03:38:05;48.17;;;23.07;;
9827;SDS011;4953;48.952;9.442;2022-10-03T03:40:50;43.53;;;24.37;;
9827;SDS011;4953;48.952;9.442;2022-10-03T03:43:30;46.23;;;24.43;;
9827;SDS011;4953;48.952;9.442;2022-10-03T03:46:13;51.20;;;24.10;;
9827;SDS011;4953;48.952;9.442;2022-10-03T03:49:03;49.43;;;24.43;;
9827;SDS011;4953;48.952;9.442;2022-10-03T03:51:47;48.20;;;24.20;;
9827;SDS011;4953;48.952;9.442;2022-10-03T03:54:27;48.60;;;24.70;;
9827;SDS011;4953;48.952;9.442;2022-10-03T04:00:29;51.43;;;25.73;;
9827;SDS011;4953;48.952;9.442;2022-10-03T04:03:17;50.07;;;25.20;;
9827;SDS011;4953;48.952;9.442;2022-10-03T04:05:57;53.13;;;26.23;;
9827;SDS011;4953;48.952;9.442;2022-10-03T04:08:39;55.60;;;25.27;;
9827;SDS011;4953;48.952;9.442;2022-10-03T04:11:25;44.80;;;23.60;;
9827;SDS011;4953;48.952;9.442;2022-10-03T04:14:05;47.30;;;23.87;;
9827;SDS011;4953;48.952;9.442;2022-10-03T04:17:04;48.57;;;22.87;;
9827;SDS011;4953;48.952;9.442;2022-10-03T04:20:13;43.73;;;23.23;;
9827;SDS011;4953;48.952;9.442;2022-10-03T04:22:52;44.60;;;26.03;;
9827;SDS011;4953;48.952;9.442;2022-10-03T04:25:39;45.60;;;22.90;;
9827;SDS011;4953;48.952;9.442;2022-10-03T04:28:26;43.37;;;23.77;;
9827;SDS011;4953;48.952;9.442;2022-10-03T04:31:06;43.80;;;22.63;;
9827;SDS011;4953;48.952;9.442;2022-10-03T04:33:50;45.43;;;23.27;;
9827;SDS011;4953;48.952;9.442;2022-10-03T04:36:36;39.83;;;22.07;;
9827;SDS011;4953;48.952;9.442;2022-10-03T04:39:21;37.87;;;20.90;;
9827;SDS011;4953;48.952;9.442;2022-10-03T04:41:55;41.80;;;24.73;;
9827;SDS011;4953;48.952;9.442;2022-10-03T04:44:34;38.03;;;20.83;;
9827;SDS011;4953;48.952;9.442;2022-10-03T04:47:13;41.33;;;21.10;;
9827;SDS011;4953;48.952;9.442;2022-10-03T04:49:48;44.53;;;22.40;;
9827;SDS011;4953;48.952;9.442;2022-10-03T04:52:22;38.53;;;21.27;;
9827;SDS011;4953;48.952;9.442;2022-10-03T04:55:05;37.07;;;20.83;;
9827;SDS011;4953;48.952;9.442;2022-10-03T04:57:43;39.00;;;21.20;;
9827;SDS011;4953;48.952;9.442;2022-10-03T05:00:21;37.10;;;20.40;;
9827;SDS011;4953;48.952;9.442;2022-10-03T05:02:57;34.70;;;20.37;;
9827;SDS011;4953;48.952;9.442;2022-10-03T05:05:42;32.03;;;20.63;;
9827;SDS011;4953;48.952;9.442;2022-10-03T05:08:18;33.90;;;19.57;;
9827;SDS011;4953;48.952;9.442;2022-10-03T05:11:03;28.10;;;17.37;;
9827;SDS011;4953;48.952;9.442;2022-10-03T05:13:47;31.40;;;19.13;;
9827;SDS011;4953;48.952;9.442;2022-10-03T05:16:25;29.20;;;18.90;;
9827;SDS011;4953;48.952;9.442;2022-10-03T05:19:04;31.13;;;18.03;;
9827;SDS011;4953;48.952;9.442;2022-10-03T05:21:53;28.00;;;18.07;;
9827;SDS011;4953;48.952;9.442;2022-10-03T05:24:25;30.10;;;19.40;;
9827;SDS011;4953;48.952;9.442;2022-10-03T05:27:00;30.63;;;18.80;;
9827;SDS011;4953;48.952;9.442;2022-10-03T05:29:38;25.90;;;17.50;;
9827;SDS011;4953;48.952;9.442;2022-10-03T05:32:15;27.60;;;17.13;;
9827;SDS011;4953;48.952;9.442;2022-10-03T05:37:57;25.53;;;17.50;;
9827;SDS011;4953;48.952;9.442;2022-10-03T05:40:36;34.97;;;17.83;;
9827;SDS011;4953;48.952;9.442;2022-10-03T05:43:22;30.03;;;17.83;;
9827;SDS011;4953;48.952;9.442;2022-10-03T05:46:00;26.67;;;16.20;;
9827;SDS011;4953;48.952;9.442;2022-10-03T05:48:40;27.13;;;17.50;;
9827;SDS011;4953;48.952;9.442;2022-10-03T05:51:22;28.63;;;15.70;;
9827;SDS011;4953;48.952;9.442;2022-10-03T05:57:21;71.07;;;19.90;;
9827;SDS011;4953;48.952;9.442;2022-10-03T06:00:09;36.47;;;18.73;;
9827;SDS011;4953;48.952;9.442;2022-10-03T06:06:05;46.40;;;20.50;;
9827;SDS011;4953;48.952;9.442;2022-10-03T06:11:56;34.00;;;18.83;;
9827;SDS011;4953;48.952;9.442;2022-10-03T06:14:30;40.60;;;18.70;;
9827;SDS011;4953;48.952;9.442;2022-10-03T06:20:14;35.93;;;18.40;;
9827;SDS011;4953;48.952;9.442;2022-10-03T06:26:17;30.93;;;17.37;;
9827;SDS011;4953;48.952;9.442;2022-10-03T06:29:00;36.07;;;19.10;;
9827;SDS011;4953;48.952;9.442;2022-10-03T06:31:51;34.67;;;20.17;;
9827;SDS011;4953;48.952;9.442;2022-10-03T06:37:52;34.30;;;20.77;;
9827;SDS011;4953;48.952;9.442;2022-10-03T06:40:56;36.67;;;20.33;;
9827;SDS011;4953;48.952;9.442;2022-10-03T06:43:52;35.50;;;19.50;;
9827;SDS011;4953;48.952;9.442;2022-10-03T06:46:36;38.60;;;20.23;;
9827;SDS011;4953;48.952;9.442;2022-10-03T06:49:26;42.27;;;19.47;;
9827;SDS011;4953;48.952;9.442;2022-10-03T06:55:41;44.87;;;22.80;;
9827;SDS011;4953;48.952;9.442;2022-10-03T06:58:27;48.67;;;22.70;;
9827;SDS011;4953;48.952;9.442;2022-10-03T07:01:20;52.50;;;23.30;;
9827;SDS011;4953;48.952;9.442;2022-10-03T07:07:29;49.20;;;22.00;;
9827;SDS011;4953;48.952;9.442;2022-10-03T07:10:30;53.27;;;25.20;;
9827;SDS011;4953;48.952;9.442;2022-10-03T07:13:22;50.87;;;22.87;;
9827;SDS011;4953;48.952;9.442;2022-10-03T07:19:23;49.43;;;22.53;;
9827;SDS011;4953;48.952;9.442;2022-10-03T07:28:03;39.67;;;19.80;;
9827;SDS011;4953;48.952;9.442;2022-10-03T07:30:47;30.03;;;17.13;;
9827;SDS011;4953;48.952;9.442;2022-10-03T07:36:22;25.33;;;13.77;;
9827;SDS011;4953;48.952;9.442;2022-10-03T07:39:32;29.77;;;15.67;;
9827;SDS011;4953;48.952;9.442;2022-10-03T07:45:32;19.67;;;11.67;;
9827;SDS011;4953;48.952;9.442;2022-10-03T07:51:23;18.80;;;11.47;;
9827;SDS011;4953;48.952;9.442;2022-10-03T07:54:04;25.13;;;11.00;;
9827;SDS011;4953;48.952;9.442;2022-10-03T07:56:58;31.53;;;16.53;;
9827;SDS011;4953;48.952;9.442;2022-10-03T08:06:12;38.87;;;17.17;;
9827;SDS011;4953;48.952;9.442;2022-10-03T08:08:59;30.33;;;16.77;;
9827;SDS011;4953;48.952;9.442;2022-10-03T08:14:57;29.77;;;17.40;;
9827;SDS011;4953;48.952;9.442;2022-10-03T08:20:37;22.97;;;15.43;;
9827;SDS011;4953;48.952;9.442;2022-10-03T08:26:28;29.43;;;15.13;;
9827;SDS011;4953;48.952;9.442;2022-10-03T08:38:30;27.97;;;14.50;;
9827;SDS011;4953;48.952;9.442;2022-10-03T08:41:31;24.27;;;13.40;;
9827;SDS011;4953;48.952;9.442;2022-10-03T08:44:33;26.50;;;12.80;;
9827;SDS011;4953;48.952;9.442;2022-10-03T08:53:09;21.53;;;10.80;;
9827;SDS011;4953;48.952;9.442;2022-10-03T08:56:05;19.73;;;12.60;;
9827;SDS011;4953;48.952;9.442;2022-10-03T09:05:00;23.33;;;8.80;;
9827;SDS011;4953;48.952;9.442;2022-10-03T09:07:53;20.57;;;8.90;;
9827;SDS011;4953;48.952;9.442;2022-10-03T09:11:12;18.27;;;9.03;;
9827;SDS011;4953;48.952;9.442;2022-10-03T09:14:15;10.17;;;7.77;;
9827;SDS011;4953;48.952;9.442;2022-10-03T09:17:28;18.60;;;8.90;;
9827;SDS011;4953;48.952;9.442;2022-10-03T09:30:03;10.40;;;6.63;;
9827;SDS011;4953;48.952;9.442;2022-10-03T09:32:55;18.50;;;7.10;;
9827;SDS011;4953;48.952;9.442;2022-10-03T09:35:45;16.67;;;6.40;;
9827;SDS011;4953;48.952;9.442;2022-10-03T09:44:31;15.77;;;7.77;;
9827;SDS011;4953;48.952;9.442;2022-10-03T09:47:20;21.83;;;9.67;;
9827;SDS011;4953;48.952;9.442;2022-10-03T09:53:28;13.87;;;7.30;;
9827;SDS011;4953;48.952;9.442;2022-10-03T09:56:21;16.10;;;7.97;;
9827;SDS011;4953;48.952;9.442;2022-10-03T09:59:07;17.47;;;7.20;;
9827;SDS011;4953;48.952;9.442;2022-10-03T10:01:46;13.50;;;6.43;;
9827;SDS011;4953;48.952;9.442;2022-10-03T10:04:24;16.87;;;6.10;;
9827;SDS011;4953;48.952;9.442;2022-10-03T10:10:23;17.87;;;6.53;;
9827;SDS011;4953;48.952;9.442;2022-10-03T10:13:13;14.50;;;6.97;;
9827;SDS011;4953;48.952;9.442;2022-10-03T10:15:59;15.20;;;8.07;;
9827;SDS011;4953;48.952;9.442;2022-10-03T10:21:50;17.13;;;7.70;;
9827;SDS011;4953;48.952;9.442;2022-10-03T10:24:48;8.50;;;5.70;;
9827;SDS011;4953;48.952;9.442;2022-10-03T10:27:48;12.03;;;5.57;;
9827;SDS011;4953;48.952;9.442;2022-10-03T10:30:45;13.20;;;6.10;;
9827;SDS011;4953;48.952;9.442;2022-10-03T10:34:08;11.50;;;6.63;;
9827;SDS011;4953;48.952;9.442;2022-10-03T10:37:19;12.20;;;6.23;;
9827;SDS011;4953;48.952;9.442;2022-10-03T10:40:09;11.50;;;6.30;;
9827;SDS011;4953;48.952;9.442;2022-10-03T10:49:29;12.40;;;6.20;;
9827;SDS011;4953;48.952;9.442;2022-10-03T10:52:30;8.67;;;5.70;;
9827;SDS011;4953;48.952;9.442;2022-10-03T10:58:54;7.93;;;4.13;;
9827;SDS011;4953;48.952;9.442;2022-10-03T11:02:01;10.83;;;4.73;;
9827;SDS011;4953;48.952;9.442;2022-10-03T11:08:18;6.37;;;4.00;;
9827;SDS011;4953;48.952;9.442;2022-10-03T11:11:12;6.10;;;4.47;;
9827;SDS011;4953;48.952;9.442;2022-10-03T11:14:35;9.93;;;4.77;;
9827;SDS011;4953;48.952;9.442;2022-10-03T11:20:47;10.07;;;5.40;;
9827;SDS011;4953;48.952;9.442;2022-10-03T11:23:48;10.83;;;5.33;;
9827;SDS011;4953;48.952;9.442;2022-10-03T11:29:51;13.40;;;4.43;;
9827;SDS011;4953;48.952;9.442;2022-10-03T11:36:17;9.60;;;6.00;;
9827;SDS011;4953;48.952;9.442;2022-10-03T11:39:03;11.17;;;5.13;;
9827;SDS011;4953;48.952;9.442;2022-10-03T11:41:44;10.83;;;5.80;;
9827;SDS011;4953;48.952;9.442;2022-10-03T11:44:18;15.33;;;6.80;;
9827;SDS011;4953;48.952;9.442;2022-10-03T11:47:04;11.37;;;6.07;;
9827;SDS011;4953;48.952;9.442;2022-10-03T11:49:59;11.63;;;6.10;;
9827;SDS011;4953;48.952;9.442;2022-10-03T11:52:45;11.50;;;5.40;;
9827;SDS011;4953;48.952;9.442;2022-10-03T11:55:28;9.10;;;5.60;;
9827;SDS011;4953;48.952;9.442;2022-10-03T11:58:02;12.53;;;5.30;;
9827;SDS011;4953;48.952;9.442;2022-10-03T12:00:39;11.40;;;5.77;;
9827;SDS011;4953;48.952;9.442;2022-10-03T12:03:11;15.50;;;5.80;;
9827;SDS011;4953;48.952;9.442;2022-10-03T12:05:50;17.53;;;5.60;;
9827;SDS011;4953;48.952;9.442;2022-10-03T12:08:42;13.50;;;5.33;;
9827;SDS011;4953;48.952;9.442;2022-10-03T12:11:23;10.90;;;5.50;;
9827;SDS011;4953;48.952;9.442;2022-10-03T12:14:00;14.77;;;5.17;;
9827;SDS011;4953;48.952;9.442;2022-10-03T12:16:44;14.80;;;5.90;;
9827;SDS011;4953;48.952;9.442;2022-10-03T12:19:22;9.47;;;5.10;;
9827;SDS011;4953;48.952;9.442;2022-10-03T12:21:56;11.70;;;4.43;;
9827;SDS011;4953;48.952;9.442;2022-10-03T12:24:32;10.80;;;4.77;;
9827;SDS011;4953;48.952;9.442;2022-10-03T12:27:04;10.10;;;4.37;;
9827;SDS011;4953;48.952;9.442;2022-10-03T12:29:41;9.90;;;4.30;;
9827;SDS011;4953;48.952;9.442;2022-10-03T12:32:14;14.73;;;5.13;;
9827;SDS011;4953;48.952;9.442;2022-10-03T12:34:46;9.87;;;5.27;;
9827;SDS011;4953;48.952;9.442;2022-10-03T12:37:31;6.43;;;4.33;;
9827;SDS011;4953;48.952;9.442;2022-10-03T12:40:09;11.93;;;4.93;;
9827;SDS011;4953;48.952;9.442;2022-10-03T12:42:47;16.23;;;5.00;;
9827;SDS011;4953;48.952;9.442;2022-10-03T12:45:31;10.63;;;4.93;;
9827;SDS011;4953;48.952;9.442;2022-10-03T12:48:09;7.77;;;4.23;;
9827;SDS011;4953;48.952;9.442;2022-10-03T12:50:51;11.80;;;4.23;;
9827;SDS011;4953;48.952;9.442;2022-10-03T12:53:28;10.67;;;4.27;;
9827;SDS011;4953;48.952;9.442;2022-10-03T12:56:09;10.90;;;4.43;;
9827;SDS011;4953;48.952;9.442;2022-10-03T12:58:53;8.60;;;3.50;;
9827;SDS011;4953;48.952;9.442;2022-10-03T13:01:28;4.63;;;3.43;;
9827;SDS011;4953;48.952;9.442;2022-10-03T13:04:10;7.97;;;2.87;;
9827;SDS011;4953;48.952;9.442;2022-10-03T13:06:50;7.60;;;3.87;;
9827;SDS011;4953;48.952;9.442;2022-10-03T13:09:30;7.90;;;3.23;;
9827;SDS011;4953;48.952;9.442;2022-10-03T13:12:15;7.73;;;3.97;;
9827;SDS011;4953;48.952;9.442;2022-10-03T13:18:07;9.60;;;3.37;;
9827;SDS011;4953;48.952;9.442;2022-10-03T13:20:46;9.27;;;3.03;;
9827;SDS011;4953;48.952;9.442;2022-10-03T13:23:25;8.17;;;3.63;;
9827;SDS011;4953;48.952;9.442;2022-10-03T13:26:05;8.10;;;3.00;;
9827;SDS011;4953;48.952;9.442;2022-10-03T13:28:40;5.80;;;3.07;;
9827;SDS011;4953;48.952;9.442;2022-10-03T13:31:30;6.63;;;2.90;;
9827;SDS011;4953;48.952;9.442;2022-10-03T13:33:59;7.43;;;3.23;;
9827;SDS011;4953;48.952;9.442;2022-10-03T13:36:33;7.13;;;3.97;;
9827;SDS011;4953;48.952;9.442;2022-10-03T13:39:13;7.07;;;3.17;;
9827;SDS011;4953;48.952;9.442;2022-10-03T13:44:39;13.73;;;3.70;;
9827;SDS011;4953;48.952;9.442;2022-10-03T13:47:17;8.00;;;3.40;;
9827;SDS011;4953;48.952;9.442;2022-10-03T13:50:12;6.73;;;3.20;;
9827;SDS011;4953;48.952;9.442;2022-10-03T13:52:43;8.00;;;4.00;;
9827;SDS011;4953;48.952;9.442;2022-10-03T13:55:19;6.40;;;3.30;;
9827;SDS011;4953;48.952;9.442;2022-10-03T13:58:01;7.33;;;3.50;;
9827;SDS011;4953;48.952;9.442;2022-10-03T14:01:01;7.50;;;3.30;;
9827;SDS011;4953;48.952;9.442;2022-10-03T14:03:45;8.20;;;3.20;;
9827;SDS011;4953;48.952;9.442;2022-10-03T14:06:26;7.83;;;2.87;;
9827;SDS011;4953;48.952;9.442;2022-10-03T14:09:00;7.37;;;3.07;;
9827;SDS011;4953;48.952;9.442;2022-10-03T14:11:46;8.73;;;3.10;;
9827;SDS011;4953;48.952;9.442;2022-10-03T14:14:33;6.53;;;3.10;;
9827;SDS011;4953;48.952;9.442;2022-10-03T14:17:10;6.93;;;3.60;;
9827;SDS011;4953;48.952;9.442;2022-10-03T14:19:44;10.93;;;3.53;;
9827;SDS011;4953;48.952;9.442;2022-10-03T14:22:24;5.40;;;3.13;;
9827;SDS011;4953;48.952;9.442;2022-10-03T14:25:02;6.50;;;2.83;;
9827;SDS011;4953;48.952;9.442;2022-10-03T14:27:48;5.43;;;3.00;;
9827;SDS011;4953;48.952;9.442;2022-10-03T14:30:19;6.53;;;3.43;;
9827;SDS011;4953;48.952;9.442;2022-10-03T14:32:57;8.77;;;3.30;;
9827;SDS011;4953;48.952;9.442;2022-10-03T14:35:38;6.90;;;3.27;;
9827;SDS011;4953;48.952;9.442;2022-10-03T14:41:40;7.90;;;3.80;;
9827;SDS011;4953;48.952;9.442;2022-10-03T14:44:12;6.60;;;3.43;;
9827;SDS011;4953;48.952;9.442;2022-10-03T14:46:47;9.80;;;4.47;;
9827;SDS011;4953;48.952;9.442;2022-10-03T14:49:19;9.63;;;3.27;;
9827;SDS011;4953;48.952;9.442;2022-10-03T14:51:50;9.43;;;3.27;;
9827;SDS011;4953;48.952;9.442;2022-10-03T14:54:23;9.17;;;3.80;;
9827;SDS011;4953;48.952;9.442;2022-10-03T14:56:52;6.37;;;3.67;;
9827;SDS011;4953;48.952;9.442;2022-10-03T14:59:21;9.90;;;3.70;;
9827;SDS011;4953;48.952;9.442;2022-10-03T15:01:55;5.23;;;3.03;;
9827;SDS011;4953;48.952;9.442;2022-10-03T15:04:25;9.00;;;3.37;;
9827;SDS011;4953;48.952;9.442;2022-10-03T15:06:55;5.87;;;3.10;;
9827;SDS011;4953;48.952;9.442;2022-10-03T15:09:25;9.10;;;3.50;;
9827;SDS011;4953;48.952;9.442;2022-10-03T15:11:59;10.87;;;3.63;;
9827;SDS011;4953;48.952;9.442;2022-10-03T15:14:31;6.97;;;3.47;;
9827;SDS011;4953;48.952;9.442;2022-10-03T15:17:03;6.00;;;3.53;;
9827;SDS011;4953;48.952;9.442;2022-10-03T15:19:34;12.87;;;4.50;;
9827;SDS011;4953;48.952;9.442;2022-10-03T15:22:06;14.87;;;5.23;;
9827;SDS011;4953;48.952;9.442;2022-10-03T15:24:48;6.50;;;3.70;;
9827;SDS011;4953;48.952;9.442;2022-10-03T15:27:19;8.63;;;3.63;;
9827;SDS011;4953;48.952;9.442;2022-10-03T15:29:49;5.27;;;3.47;;
9827;SDS011;4953;48.952;9.442;2022-10-03T15:32:22;5.00;;;3.60;;
9827;SDS011;4953;48.952;9.442;2022-10-03T15:34:54;10.30;;;3.63;;
9827;SDS011;4953;48.952;9.442;2022-10-03T15:37:24;6.67;;;4.03;;
9827;SDS011;4953;48.952;9.442;2022-10-03T15:39:57;7.30;;;3.70;;
9827;SDS011;4953;48.952;9.442;2022-10-03T15:42:28;10.97;;;3.90;;
9827;SDS011;4953;48.952;9.442;2022-10-03T15:44:57;9.00;;;3.63;;
9827;SDS011;4953;48.952;9.442;2022-10-03T15:47:29;8.77;;;3.57;;
9827;SDS011;4953;48.952;9.442;2022-10-03T15:50:00;7.13;;;4.10;;
9827;SDS011;4953;48.952;9.442;2022-10-03T15:52:32;10.87;;;4.00;;
9827;SDS011;4953;48.952;9.442;2022-10-03T15:55:06;8.10;;;3.87;;
9827;SDS011;4953;48.952;9.442;2022-10-03T15:57:42;9.40;;;3.40;;
9827;SDS011;4953;48.952;9.442;2022-10-03T16:00:17;7.60;;;3.03;;
9827;SDS011;4953;48.952;9.442;2022-10-03T16:02:48;5.10;;;2.97;;
9827;SDS011;4953;48.952;9.442;2022-10-03T16:05:21;5.70;;;3.00;;
9827;SDS011;4953;48.952;9.442;2022-10-03T16:07:50;6.87;;;3.33;;
9827;SDS011;4953;48.952;9.442;2022-10-03T16:10:23;6.77;;;4.10;;
9827;SDS011;4953;48.952;9.442;2022-10-03T16:12:59;5.80;;;4.17;;
9827;SDS011;4953;48.952;9.442;2022-10-03T16:15:37;9.97;;;3.73;;
9827;SDS011;4953;48.952;9.442;2022-10-03T16:21:37;4.80;;;3.70;;
9827;SDS011;4953;48.952;9.442;2022-10-03T16:24:15;7.37;;;4.67;;
9827;SDS011;4953;48.952;9.442;2022-10-03T16:26:50;6.50;;;4.37;;
9827;SDS011;4953;48.952;9.442;2022-10-03T16:29:21;10.67;;;4.63;;
9827;SDS011;4953;48.952;9.442;2022-10-03T16:31:51;8.10;;;4.40;;
9827;SDS011;4953;48.952;9.442;2022-10-03T16:34:24;7.37;;;4.03;;
9827;SDS011;4953;48.952;9.442;2022-10-03T16:36:55;7.60;;;4.10;;
9827;SDS011;4953;48.952;9.442;2022-10-03T16:39:23;10.13;;;4.50;;
9827;SDS011;4953;48.952;9.442;2022-10-03T16:41:53;9.33;;;4.03;;
9827;SDS011;4953;48.952;9.442;2022-10-03T16:44:22;11.00;;;5.03;;
9827;SDS011;4953;48.952;9.442;2022-10-03T16:46:51;8.97;;;4.53;;
9827;SDS011;4953;48.952;9.442;2022-10-03T16:49:35;7.10;;;4.50;;
9827;SDS011;4953;48.952;9.442;2022-10-03T16:52:23;6.60;;;4.20;;
9827;SDS011;4953;48.952;9.442;2022-10-03T16:54:59;8.90;;;4.93;;
9827;SDS011;4953;48.952;9.442;2022-10-03T16:57:30;7.30;;;4.40;;
9827;SDS011;4953;48.952;9.442;2022-10-03T17:00:04;7.03;;;3.90;;
9827;SDS011;4953;48.952;9.442;2022-10-03T17:02:37;11.07;;;5.03;;
9827;SDS011;4953;48.952;9.442;2022-10-03T17:05:06;11.53;;;6.60;;
9827;SDS011;4953;48.952;9.442;2022-10-03T17:07:36;18.80;;;10.40;;
9827;SDS011;4953;48.952;9.442;2022-10-03T17:10:15;17.40;;;8.23;;
9827;SDS011;4953;48.952;9.442;2022-10-03T17:12:54;17.43;;;7.43;;
9827;SDS011;4953;48.952;9.442;2022-10-03T17:15:25;11.87;;;8.23;;
9827;SDS011;4953;48.952;9.442;2022-10-03T17:17:54;13.83;;;7.93;;
9827;SDS011;4953;48.952;9.442;2022-10-03T17:20:35;12.43;;;8.03;;
9827;SDS011;4953;48.952;9.442;2022-10-03T17:23:09;15.83;;;8.10;;
9827;SDS011;4953;48.952;9.442;2022-10-03T17:25:42;24.07;;;11.73;;
9827;SDS011;4953;48.952;9.442;2022-10-03T17:28:20;33.60;;;19.80;;
9827;SDS011;4953;48.952;9.442;2022-10-03T17:30:56;21.20;;;13.27;;
9827;SDS011;4953;48.952;9.442;2022-10-03T17:33:28;20.50;;;11.97;;
9827;SDS011;4953;48.952;9.442;2022-10-03T17:36:09;15.87;;;10.60;;
9827;SDS011;4953;48.952;9.442;2022-10-03T17:38:55;12.97;;;8.33;;
9827;SDS011;4953;48.952;9.442;2022-10-03T17:41:30;10.10;;;7.20;;
9827;SDS011;4953;48.952;9.442;2022-10-03T17:44:03;15.73;;;7.63;;
9827;SDS011;4953;48.952;9.442;2022-10-03T17:46:42;14.80;;;7.60;;
9827;SDS011;4953;48.952;9.442;2022-10-03T17:49:18;16.37;;;10.10;;
9827;SDS011;4953;48.952;9.442;2022-10-03T17:51:51;20.50;;;13.20;;
9827;SDS011;4953;48.952;9.442;2022-10-03T17:54:20;22.77;;;11.27;;
9827;SDS011;4953;48.952;9.442;2022-10-03T17:56:52;13.13;;;8.73;;
9827;SDS011;4953;48.952;9.442;2022-10-03T17:59:23;10.70;;;7.73;;
9827;SDS011;4953;48.952;9.442;2022-10-03T18:01:54;11.63;;;8.00;;
9827;SDS011;4953;48.952;9.442;2022-10-03T18:04:27;14.67;;;9.40;;
9827;SDS011;4953;48.952;9.442;2022-10-03T18:07:01;10.47;;;7.87;;
9827;SDS011;4953;48.952;9.442;2022-10-03T18:09:34;15.37;;;7.50;;
9827;SDS011;4953;48.952;9.442;2022-10-03T18:12:11;13.73;;;6.80;;
9827;SDS011;4953;48.952;9.442;2022-10-03T18:14:47;11.80;;;7.07;;
9827;SDS011;4953;48.952;9.442;2022-10-03T18:17:23;13.23;;;6.60;;
9827;SDS011;4953;48.952;9.442;2022-10-03T18:20:04;12.90;;;6.73;;
9827;SDS011;4953;48.952;9.442;2022-10-03T18:22:46;10.43;;;6.57;;
9827;SDS011;4953;48.952;9.442;2022-10-03T18:25:20;11.77;;;6.50;;
9827;SDS011;4953;48.952;9.442;2022-10-03T18:28:13;7.67;;;6.23;;
9827;SDS011;4953;48.952;9.442;2022-10-03T18:30:48;9.23;;;5.73;;
9827;SDS011;4953;48.952;9.442;2022-10-03T18:33:19;7.93;;;6.23;;
9827;SDS011;4953;48.952;9.442;2022-10-03T18:35:49;10.13;;;6.57;;
9827;SDS011;4953;48.952;9.442;2022-10-03T18:38:20;10.03;;;7.50;;
9827;SDS011;4953;48.952;9.442;2022-10-03T18:40:49;18.23;;;10.50;;
9827;SDS011;4953;48.952;9.442;2022-10-03T18:43:25;21.20;;;12.20;;
9827;SDS011;4953;48.952;9.442;2022-10-03T18:46:05;24.10;;;13.40;;
9827;SDS011;4953;48.952;9.442;2022-10-03T18:48:52;15.73;;;9.73;;
9827;SDS011;4953;48.952;9.442;2022-10-03T18:51:26;11.53;;;7.90;;
9827;SDS011;4953;48.952;9.442;2022-10-03T18:54:00;10.67;;;7.70;;
9827;SDS011;4953;48.952;9.442;2022-10-03T18:56:32;11.73;;;7.47;;
9827;SDS011;4953;48.952;9.442;2022-10-03T18:59:17;10.57;;;6.73;;
9827;SDS011;4953;48.952;9.442;2022-10-03T19:01:50;8.67;;;7.07;;
9827;SDS011;4953;48.952;9.442;2022-10-03T19:04:33;10.73;;;5.97;;
9827;SDS011;4953;48.952;9.442;2022-10-03T19:07:09;14.90;;;6.27;;
9827;SDS011;4953;48.952;9.442;2022-10-03T19:09:45;9.70;;;6.63;;
9827;SDS011;4953;48.952;9.442;2022-10-03T19:12:42;8.80;;;6.40;;
9827;SDS011;4953;48.952;9.442;2022-10-03T19:15:15;9.10;;;6.90;;